Time;durP1;ratioP1;P1;durP2;ratioP2;P2;SDS_P1;SDS_P2;PMS_P1;PMS_P2;Temp;Humidity;BMP_temperature;BMP_pressure;BME280_temperature;BME280_humidity;BME280_pressure;Samples;Min_cycle;Max_cycle;Signal;HPM_P1;HPM_P2
2022/04/09 00:01:25;;;;;;;0.20;0.20;;;8.70;99.90;;;;;;5033519;28;20030;-72
2022/04/09 00:03:51;;;;;;;0.20;0.20;;;8.70;99.90;;;;;;5032314;28;20116;-72
2022/04/09 00:06:17;;;;;;;0.20;0.20;;;8.50;99.90;;;;;;5033460;28;20113;-72
2022/04/09 00:08:43;;;;;;;0.10;0.10;;;8.60;99.90;;;;;;5033627;28;20021;-72
2022/04/09 00:11:09;;;;;;;0.10;0.10;;;8.70;99.90;;;;;;5033993;28;20032;-72
2022/04/09 00:13:36;;;;;;;0.20;0.20;;;8.80;99.90;;;;;;5034393;28;20100;-74
2022/04/09 00:16:02;;;;;;;0.20;0.20;;;8.70;99.90;;;;;;5033198;28;20053;-74
2022/04/09 00:18:28;;;;;;;0.20;0.20;;;8.80;99.90;;;;;;5033249;28;20056;-74
2022/04/09 00:20:55;;;;;;;0.20;0.20;;;8.90;99.90;;;;;;5033074;28;20134;-74
2022/04/09 00:23:23;;;;;;;0.20;0.20;;;9.10;99.90;;;;;;5032011;28;20105;-75
2022/04/09 00:25:49;;;;;;;0.20;0.20;;;9.30;99.90;;;;;;5032927;28;20025;-74
2022/04/09 00:28:15;;;;;;;0.20;0.20;;;9.40;99.90;;;;;;5032910;28;20021;-74
2022/04/09 00:30:41;;;;;;;0.20;0.20;;;9.40;99.90;;;;;;5031766;28;20037;-74
2022/04/09 00:33:07;;;;;;;0.20;0.20;;;9.40;99.90;;;;;;5032959;28;20036;-74
2022/04/09 00:35:33;;;;;;;1.00;0.65;;;9.40;99.90;;;;;;5032703;28;20025;-74
2022/04/09 00:37:59;;;;;;;0.10;0.10;;;9.40;99.90;;;;;;5031601;28;20528;-74
2022/04/09 00:40:26;;;;;;;0.20;0.20;;;9.50;99.90;;;;;;5032788;28;20037;-74
2022/04/09 00:42:53;;;;;;;0.20;0.20;;;9.70;99.90;;;;;;5031586;28;20021;-74
2022/04/09 00:45:19;;;;;;;0.20;0.20;;;9.70;99.90;;;;;;5031497;28;20096;-74
2022/04/09 00:47:44;;;;;;;0.30;0.30;;;9.80;99.90;;;;;;5032727;28;20084;-74
2022/04/09 00:50:11;;;;;;;0.63;0.50;;;9.90;99.90;;;;;;5031489;28;20036;-74
2022/04/09 00:52:45;;;;;;;0.28;0.28;;;9.90;99.90;;;;;;5032672;28;20049;-74
2022/04/09 00:55:12;;;;;;;0.20;0.20;;;10.00;99.90;;;;;;5031267;28;20030;-74
2022/04/09 00:57:40;;;;;;;31.23;3.13;;;10.10;99.90;;;;;;5032302;28;20040;-74
2022/04/09 01:00:11;;;;;;;0.75;0.40;;;10.10;99.90;;;;;;5032423;28;20029;-74
2022/04/09 01:02:41;;;;;;;0.65;0.47;;;10.20;99.90;;;;;;5032241;28;20089;-74
2022/04/09 01:05:07;;;;;;;1.27;0.90;;;10.30;99.90;;;;;;5032393;28;20029;-74
2022/04/09 01:07:34;;;;;;;0.20;0.20;;;10.30;99.90;;;;;;5031136;28;20520;-74
2022/04/09 01:10:04;;;;;;;0.20;0.20;;;10.40;99.90;;;;;;5014671;28;20029;-74
2022/04/09 01:12:34;;;;;;;0.30;0.30;;;10.50;99.90;;;;;;5032343;28;20033;-74
2022/04/09 01:15:01;;;;;;;0.10;0.10;;;10.50;99.90;;;;;;5030945;28;20095;-74
2022/04/09 01:17:27;;;;;;;0.30;0.30;;;10.50;99.90;;;;;;5030884;28;20603;-74
2022/04/09 01:19:53;;;;;;;0.40;0.40;;;10.50;99.90;;;;;;5030875;28;20108;-74
2022/04/09 01:22:19;;;;;;;0.65;0.40;;;10.30;99.90;;;;;;5032220;28;20022;-74
2022/04/09 01:24:44;;;;;;;1.35;0.30;;;10.20;99.90;;;;;;5030962;28;20493;-74
2022/04/09 01:27:10;;;;;;;0.30;0.30;;;10.10;99.90;;;;;;5031901;28;20021;-74
2022/04/09 01:29:36;;;;;;;0.20;0.20;;;10.10;99.90;;;;;;5030914;28;20033;-74
2022/04/09 01:32:02;;;;;;;0.20;0.20;;;10.00;99.90;;;;;;5032128;28;20025;-74
2022/04/09 01:34:28;;;;;;;0.45;0.40;;;10.00;99.90;;;;;;5030798;28;20033;-74
2022/04/09 01:36:54;;;;;;;0.43;0.43;;;9.90;99.90;;;;;;5031859;28;20047;-74
2022/04/09 01:39:20;;;;;;;0.30;0.30;;;9.90;99.90;;;;;;5031799;28;20040;-74
2022/04/09 01:41:46;;;;;;;0.40;0.40;;;9.90;99.90;;;;;;5014321;28;20030;-74
2022/04/09 01:44:11;;;;;;;1.05;1.00;;;9.80;99.90;;;;;;5031940;28;20389;-74
2022/04/09 01:46:41;;;;;;;0.20;0.20;;;9.80;99.90;;;;;;5031806;28;20017;-74
2022/04/09 01:49:07;;;;;;;0.40;0.30;;;9.90;99.90;;;;;;5032308;28;20416;-74
2022/04/09 01:51:32;;;;;;;0.20;0.20;;;9.90;99.90;;;;;;5031971;28;20029;-74
2022/04/09 01:53:58;;;;;;;0.10;0.10;;;9.80;99.90;;;;;;5030673;28;20412;-74
2022/04/09 01:56:24;;;;;;;1.25;0.75;;;9.80;99.90;;;;;;5031656;28;20091;-74
2022/04/09 01:58:50;;;;;;;0.17;0.17;;;9.80;99.90;;;;;;5031788;28;20034;-74
2022/04/09 02:01:19;;;;;;;0.25;0.25;;;9.80;99.90;;;;;;5031425;28;20056;-74
2022/04/09 02:03:44;;;;;;;0.20;0.20;;;9.60;99.90;;;;;;5030532;28;20079;-74
2022/04/09 02:06:11;;;;;;;0.20;0.20;;;8.60;99.90;;;;;;5013854;28;20022;-74
2022/04/09 02:08:37;;;;;;;0.10;0.10;;;8.00;99.90;;;;;;5030631;28;20427;-74
2022/04/09 02:11:03;;;;;;;0.20;0.20;;;7.50;99.90;;;;;;5030520;28;20477;-74
2022/04/09 02:13:29;;;;;;;0.20;0.20;;;7.30;99.90;;;;;;5031809;28;20025;-74
2022/04/09 02:15:55;;;;;;;0.10;0.10;;;7.10;99.90;;;;;;5031451;28;20036;-74
2022/04/09 02:18:20;;;;;;;0.10;0.10;;;7.10;99.90;;;;;;5031657;28;20026;-74
2022/04/09 02:20:46;;;;;;;0.20;0.20;;;7.00;99.90;;;;;;5033370;28;20384;-74
2022/04/09 02:23:12;;;;;;;0.15;0.15;;;6.80;99.90;;;;;;5035553;28;20029;-74
2022/04/09 02:25:37;;;;;;;0.20;0.20;;;6.70;99.90;;;;;;5035251;28;20030;-74
2022/04/09 02:28:04;;;;;;;0.20;0.20;;;6.60;99.90;;;;;;5035412;28;20021;-74
2022/04/09 02:30:29;;;;;;;0.20;0.20;;;6.50;99.90;;;;;;5034124;28;20647;-74
2022/04/09 02:32:55;;;;;;;0.10;0.10;;;6.50;99.90;;;;;;5033927;28;20021;-74
2022/04/09 02:35:26;;;;;;;0.30;0.30;;;6.40;99.90;;;;;;5033898;28;20436;-74
2022/04/09 02:37:52;;;;;;;0.20;0.20;;;6.30;99.90;;;;;;5034031;28;20029;-74
2022/04/09 02:40:18;;;;;;;0.30;0.30;;;6.10;99.90;;;;;;5034973;28;20083;-74
2022/04/09 02:42:46;;;;;;;0.10;0.10;;;6.20;99.90;;;;;;5034041;28;20025;-74
2022/04/09 02:45:12;;;;;;;0.30;0.30;;;6.00;99.90;;;;;;5033723;28;20022;-74
2022/04/09 02:47:38;;;;;;;0.20;0.20;;;5.80;99.90;;;;;;5034846;28;20097;-74
2022/04/09 02:50:08;;;;;;;0.30;0.30;;;5.70;99.90;;;;;;5033808;28;20072;-74
2022/04/09 02:52:39;;;;;;;0.20;0.20;;;5.40;99.90;;;;;;5017274;28;20120;-74
2022/04/09 02:55:06;;;;;;;0.20;0.20;;;5.00;99.90;;;;;;5034873;28;20030;-74
2022/04/09 02:57:32;;;;;;;0.30;0.30;;;4.90;99.90;;;;;;5034544;28;20044;-74
2022/04/09 02:59:58;;;;;;;0.30;0.30;;;4.70;99.90;;;;;;5035093;28;20052;-74
2022/04/09 03:02:24;;;;;;;0.30;0.30;;;4.30;99.90;;;;;;5034126;28;20034;-74
2022/04/09 03:04:51;;;;;;;0.30;0.30;;;4.10;99.90;;;;;;5035342;28;20465;-71
2022/04/09 03:07:17;;;;;;;0.20;0.20;;;3.90;99.90;;;;;;5034641;28;20021;-71
2022/04/09 03:09:43;;;;;;;0.20;0.20;;;3.90;99.90;;;;;;5033415;28;20060;-71
2022/04/09 03:12:09;;;;;;;0.28;0.28;;;3.90;99.90;;;;;;5034513;28;20122;-71
2022/04/09 03:14:35;;;;;;;0.20;0.20;;;3.90;99.90;;;;;;5033314;28;20035;-71
2022/04/09 03:17:01;;;;;;;0.30;0.30;;;4.00;99.90;;;;;;5034464;28;20380;-71
2022/04/09 03:19:27;;;;;;;0.20;0.20;;;3.90;99.90;;;;;;5034393;28;20026;-71
2022/04/09 03:21:52;;;;;;;0.30;0.30;;;4.00;99.90;;;;;;5033143;28;20394;-71
2022/04/09 03:24:18;;;;;;;0.20;0.20;;;3.90;99.90;;;;;;5033229;28;20424;-71
2022/04/09 03:26:44;;;;;;;0.20;0.20;;;3.80;99.90;;;;;;5034253;28;20072;-71
2022/04/09 03:29:10;;;;;;;0.20;0.20;;;3.70;99.90;;;;;;5034303;28;20029;-71
2022/04/09 03:31:36;;;;;;;0.38;0.38;;;3.60;99.90;;;;;;5033222;28;20445;-71
2022/04/09 03:34:04;;;;;;;0.30;0.30;;;3.50;99.90;;;;;;5034144;28;20026;-71
2022/04/09 03:36:30;;;;;;;0.20;0.20;;;3.50;99.90;;;;;;5034074;28;20033;-71
2022/04/09 03:38:56;;;;;;;0.30;0.30;;;3.50;99.90;;;;;;5050972;22;20045;-76
2022/04/09 03:41:22;;;;;;;0.70;0.70;;;3.50;99.90;;;;;;5034334;28;20060;-76
2022/04/09 03:43:49;;;;;;;0.30;0.30;;;3.60;99.90;;;;;;5036039;28;20441;-76
2022/04/09 03:46:15;;;;;;;0.35;0.35;;;3.60;99.90;;;;;;5019125;28;20416;-76
2022/04/09 03:48:44;;;;;;;0.20;0.20;;;3.70;99.90;;;;;;5035932;28;20074;-76
2022/04/09 03:51:11;;;;;;;0.30;0.30;;;3.50;99.90;;;;;;5053476;28;20021;-76
2022/04/09 03:53:37;;;;;;;0.20;0.20;;;3.20;99.90;;;;;;5036119;28;20048;-77
2022/04/09 03:56:04;;;;;;;0.30;0.30;;;3.30;99.90;;;;;;5053389;28;20064;-76
2022/04/09 03:58:30;;;;;;;0.20;0.20;;;3.20;99.90;;;;;;5053590;28;20025;-76
2022/04/09 04:00:56;;;;;;;0.20;0.20;;;3.40;99.90;;;;;;5035588;28;20519;-76
2022/04/09 04:03:22;;;;;;;0.20;0.20;;;3.60;99.90;;;;;;5053699;28;20021;-76
2022/04/09 04:05:48;;;;;;;0.20;0.20;;;3.60;99.90;;;;;;5035485;28;20063;-76
2022/04/09 04:08:14;;;;;;;0.30;0.30;;;3.40;99.90;;;;;;5053364;28;20045;-76
2022/04/09 04:10:41;;;;;;;0.20;0.20;;;3.40;99.90;;;;;;5035387;28;20033;-76
2022/04/09 04:13:07;;;;;;;0.20;0.20;;;3.30;99.90;;;;;;5053223;28;20028;-76
2022/04/09 04:15:33;;;;;;;0.20;0.20;;;3.30;99.90;;;;;;5035023;28;20115;-76
2022/04/09 04:17:59;;;;;;;0.28;0.28;;;3.00;99.90;;;;;;5018655;28;20032;-76
2022/04/09 04:20:25;;;;;;;0.30;0.30;;;3.10;99.90;;;;;;5035168;28;20025;-76
2022/04/09 04:22:52;;;;;;;0.30;0.30;;;3.20;99.90;;;;;;5035221;28;20128;-76
2022/04/09 04:25:18;;;;;;;0.45;0.45;;;3.20;99.90;;;;;;5035144;28;20045;-76
2022/04/09 04:27:46;;;;;;;0.30;0.30;;;3.30;99.90;;;;;;5052844;28;20074;-76
2022/04/09 04:30:13;;;;;;;0.30;0.30;;;3.10;99.90;;;;;;5018674;28;20028;-76
2022/04/09 04:32:39;;;;;;;0.28;0.28;;;3.20;99.90;;;;;;5018764;28;20032;-76
2022/04/09 04:35:05;;;;;;;0.20;0.20;;;3.40;99.90;;;;;;5034826;28;20035;-76
2022/04/09 04:37:45;;;;;;;0.20;0.20;;;3.50;99.90;;;;;;5053007;28;20049;-77
2022/04/09 04:40:12;;;;;;;0.55;0.38;;;3.50;99.90;;;;;;5052571;28;20075;-76
2022/04/09 04:42:39;;;;;;;0.20;0.20;;;3.40;99.90;;;;;;5052350;28;20021;-76
2022/04/09 04:45:06;;;;;;;0.30;0.30;;;3.30;99.90;;;;;;5018419;28;20484;-76
2022/04/09 04:47:32;;;;;;;0.20;0.20;;;3.40;99.90;;;;;;5052447;28;20028;-76
2022/04/09 04:50:02;;;;;;;0.30;0.30;;;3.30;99.90;;;;;;5034961;28;20374;-76
2022/04/09 04:52:29;;;;;;;0.30;0.30;;;3.30;99.90;;;;;;5018188;28;20033;-76
2022/04/09 04:54:55;;;;;;;0.40;0.40;;;3.30;99.90;;;;;;5034558;28;20043;-76
2022/04/09 04:57:20;;;;;;;0.52;0.40;;;3.50;99.90;;;;;;5034367;28;20409;-76
2022/04/09 04:59:46;;;;;;;0.30;0.30;;;3.10;99.90;;;;;;5052304;28;20423;-76
2022/04/09 05:02:12;;;;;;;0.20;0.20;;;3.20;99.90;;;;;;5052402;28;20488;-76
2022/04/09 05:04:38;;;;;;;0.30;0.30;;;3.40;99.90;;;;;;5052362;28;20388;-76
2022/04/09 05:07:04;;;;;;;0.22;0.22;;;3.60;99.90;;;;;;5034249;28;20024;-77
2022/04/09 05:09:30;;;;;;;0.20;0.20;;;3.50;99.90;;;;;;5034265;28;20020;-76
2022/04/09 05:11:56;;;;;;;0.50;0.50;;;3.60;99.90;;;;;;5034261;28;20032;-76
2022/04/09 05:14:21;;;;;;;0.40;0.40;;;3.50;99.90;;;;;;5017913;28;20056;-76
2022/04/09 05:16:48;;;;;;;0.40;0.40;;;3.40;99.90;;;;;;5034158;28;20086;-76
2022/04/09 05:19:13;;;;;;;0.30;0.30;;;3.50;99.90;;;;;;5034285;28;20427;-76
2022/04/09 05:21:39;;;;;;;0.20;0.20;;;3.60;99.90;;;;;;5052099;28;20017;-76
2022/04/09 05:24:05;;;;;;;0.63;0.63;;;3.40;99.90;;;;;;5017610;28;20035;-76
2022/04/09 05:26:31;;;;;;;0.30;0.30;;;3.50;99.90;;;;;;5034044;28;20095;-76
2022/04/09 05:28:57;;;;;;;0.30;0.30;;;3.30;99.90;;;;;;5051957;28;20021;-76
2022/04/09 05:31:27;;;;;;;0.20;0.20;;;3.40;99.90;;;;;;5017549;28;20021;-76
2022/04/09 05:33:54;;;;;;;0.30;0.30;;;3.60;99.90;;;;;;5017593;28;20056;-76
2022/04/09 05:36:20;;;;;;;0.20;0.20;;;3.50;99.90;;;;;;5051744;28;20375;-76
2022/04/09 05:38:45;;;;;;;0.43;0.43;;;3.70;99.90;;;;;;5033885;28;20025;-76
2022/04/09 05:41:11;;;;;;;0.77;0.77;;;3.60;99.90;;;;;;5033851;28;20052;-76
2022/04/09 05:43:37;;;;;;;0.50;0.50;;;3.60;99.90;;;;;;5034193;28;20422;-76
2022/04/09 05:46:03;;;;;;;0.30;0.30;;;3.70;99.90;;;;;;5033902;28;20025;-76
2022/04/09 05:48:28;;;;;;;0.30;0.30;;;3.50;99.90;;;;;;5034006;28;20384;-76
2022/04/09 05:50:54;;;;;;;0.45;0.45;;;3.40;99.90;;;;;;5033802;28;20029;-76
2022/04/09 05:53:20;;;;;;;0.40;0.40;;;3.30;99.90;;;;;;5017263;28;20032;-76
2022/04/09 05:55:46;;;;;;;0.30;0.30;;;3.20;99.90;;;;;;5053399;28;20031;-76
2022/04/09 05:58:11;;;;;;;0.40;0.40;;;3.20;99.90;;;;;;5054830;28;20029;-76
2022/04/09 06:00:37;;;;;;;0.30;0.30;;;3.10;99.90;;;;;;5022496;28;20021;-76
2022/04/09 06:03:03;;;;;;;2.08;0.85;;;3.20;99.90;;;;;;5055637;28;20028;-77
2022/04/09 06:05:29;;;;;;;0.40;0.40;;;3.40;99.90;;;;;;5056096;28;20021;-76
2022/04/09 06:07:55;;;;;;;0.20;0.20;;;3.50;99.90;;;;;;5055432;28;20175;-76
2022/04/09 06:10:21;;;;;;;0.28;0.28;;;3.40;99.90;;;;;;5037473;28;20178;-77
2022/04/09 06:12:46;;;;;;;0.30;0.30;;;3.50;99.90;;;;;;5055633;28;20497;-76
2022/04/09 06:15:12;;;;;;;0.25;0.25;;;3.50;99.90;;;;;;5038275;28;20037;-76
2022/04/09 06:17:39;;;;;;;0.20;0.20;;;3.30;99.90;;;;;;5055028;28;20017;-76
2022/04/09 06:20:07;;;;;;;0.30;0.30;;;3.50;99.90;;;;;;5037589;28;20436;-76
2022/04/09 06:22:33;;;;;;;1.63;0.70;;;3.40;99.90;;;;;;5055324;28;20036;-76
2022/04/09 06:24:59;;;;;;;2.17;2.05;;;3.20;99.90;;;;;;5055287;28;20029;-76
2022/04/09 06:27:25;;;;;;;0.30;0.30;;;3.00;99.90;;;;;;5055146;28;20028;-76
2022/04/09 06:29:52;;;;;;;0.68;0.40;;;3.10;99.90;;;;;;5037287;28;20029;-76
2022/04/09 06:32:18;;;;;;;0.30;0.30;;;3.20;99.90;;;;;;5037414;28;20496;-76
2022/04/09 06:34:44;;;;;;;0.40;0.40;;;3.20;99.90;;;;;;5055215;28;20055;-76
2022/04/09 06:37:09;;;;;;;0.70;0.70;;;3.30;99.90;;;;;;5036937;28;20025;-76
2022/04/09 06:39:35;;;;;;;0.40;0.40;;;3.20;99.90;;;;;;5054598;28;20119;-76
2022/04/09 06:42:01;;;;;;;0.40;0.40;;;3.20;99.90;;;;;;5061170;28;20407;-76
2022/04/09 06:44:27;;;;;;;0.93;0.90;;;3.10;99.90;;;;;;5071285;28;20021;-76
2022/04/09 06:46:53;;;;;;;0.30;0.30;;;3.00;99.90;;;;;;5036734;28;20480;-76
2022/04/09 06:49:19;;;;;;;0.38;0.38;;;2.90;99.90;;;;;;5063503;28;20028;-76
2022/04/09 06:51:44;;;;;;;0.30;0.30;;;3.20;99.90;;;;;;5075065;28;20462;-76
2022/04/09 06:54:10;;;;;;;0.55;0.55;;;3.30;99.90;;;;;;5056743;28;20476;-76
2022/04/09 06:56:37;;;;;;;0.25;0.25;;;3.30;99.90;;;;;;5039929;28;20098;-76
2022/04/09 06:59:06;;;;;;;0.28;0.28;;;3.20;99.90;;;;;;5038148;28;20032;-76
2022/04/09 07:01:32;;;;;;;0.82;0.82;;;3.30;99.90;;;;;;5054730;28;20529;-76
2022/04/09 07:03:58;;;;;;;0.55;0.40;;;3.20;99.90;;;;;;5036653;28;20116;-76
2022/04/09 07:06:24;;;;;;;0.68;0.52;;;3.30;99.90;;;;;;5051369;28;20375;-76
2022/04/09 07:08:49;;;;;;;0.50;0.50;;;3.40;99.90;;;;;;5056581;28;20035;-74
2022/04/09 07:11:15;;;;;;;0.43;0.43;;;3.40;99.90;;;;;;5055407;28;20085;-74
2022/04/09 07:13:41;;;;;;;0.20;0.20;;;3.40;99.90;;;;;;5055779;28;20021;-76
2022/04/09 07:16:07;;;;;;;0.40;0.40;;;3.40;99.90;;;;;;5048488;28;20025;-75
2022/04/09 07:18:33;;;;;;;0.43;0.28;;;3.50;99.90;;;;;;5069588;28;20048;-75
2022/04/09 07:20:59;;;;;;;0.30;0.30;;;3.70;99.90;;;;;;5038506;28;20132;-75
2022/04/09 07:23:25;;;;;;;0.57;0.57;;;3.70;99.90;;;;;;5056675;28;20021;-75
2022/04/09 07:25:51;;;;;;;0.50;0.50;;;3.80;99.90;;;;;;5055948;28;20027;-76
2022/04/09 07:28:16;;;;;;;0.80;0.80;;;3.70;99.90;;;;;;5056339;28;20044;-76
2022/04/09 07:30:43;;;;;;;0.25;0.25;;;3.60;99.90;;;;;;5056380;28;20025;-76
2022/04/09 07:33:09;;;;;;;0.43;0.43;;;3.60;99.90;;;;;;5041855;28;20036;-76
2022/04/09 07:35:35;;;;;;;1.10;1.10;;;3.60;99.90;;;;;;5035674;28;20383;-76
2022/04/09 07:38:04;;;;;;;0.30;0.30;;;3.50;99.90;;;;;;5053830;28;20029;-76
2022/04/09 07:40:30;;;;;;;0.40;0.40;;;3.50;99.90;;;;;;5019250;28;20029;-76
2022/04/09 07:42:58;;;;;;;1.27;1.20;;;3.50;99.90;;;;;;5036127;28;20021;-75
2022/04/09 07:45:24;;;;;;;3.60;0.98;;;3.30;99.90;;;;;;5035830;28;20036;-76
2022/04/09 07:47:55;;;;;;;0.40;0.40;;;3.20;99.90;;;;;;5035828;28;20380;-76
2022/04/09 07:50:21;;;;;;;0.30;0.30;;;3.20;99.90;;;;;;5067239;28;20081;-76
2022/04/09 07:52:48;;;;;;;2.65;2.00;;;3.40;99.90;;;;;;5039010;28;20028;-76
2022/04/09 07:55:16;;;;;;;0.20;0.20;;;3.40;99.90;;;;;;5055489;28;20028;-75
2022/04/09 07:57:46;;;;;;;1.10;1.10;;;3.60;99.90;;;;;;5055470;28;20047;-76
2022/04/09 08:00:16;;;;;;;0.30;0.30;;;3.60;99.90;;;;;;5055608;28;20553;-76
2022/04/09 08:02:42;;;;;;;0.30;0.30;;;3.60;99.90;;;;;;5073500;28;20044;-76
2022/04/09 08:05:10;;;;;;;0.30;0.30;;;3.90;99.90;;;;;;5055102;28;20499;-76
2022/04/09 08:07:38;;;;;;;2.53;1.63;;;3.90;99.90;;;;;;5055179;28;20021;-76
2022/04/09 08:10:04;;;;;;;0.98;0.75;;;3.80;99.90;;;;;;5055523;28;20100;-75
2022/04/09 08:12:30;;;;;;;1.13;0.70;;;3.60;99.90;;;;;;5055224;28;20074;-75
2022/04/09 08:14:56;;;;;;;0.30;0.30;;;3.50;99.90;;;;;;5055264;28;20021;-75
2022/04/09 08:17:22;;;;;;;2.75;2.17;;;3.60;99.90;;;;;;5054903;28;20039;-76
2022/04/09 08:19:48;;;;;;;0.20;0.20;;;3.80;99.90;;;;;;5054848;28;20024;-76
2022/04/09 08:22:14;;;;;;;0.30;0.30;;;3.80;99.90;;;;;;5073220;28;20026;-76
2022/04/09 08:24:42;;;;;;;2.92;2.45;;;4.00;99.90;;;;;;5038411;28;20502;-76
2022/04/09 08:27:11;;;;;;;5.28;1.85;;;4.10;99.90;;;;;;5038177;28;20021;-76
2022/04/09 08:29:37;;;;;;;9.48;2.63;;;4.20;99.90;;;;;;5072986;28;20028;-75
2022/04/09 08:32:04;;;;;;;1.52;1.42;;;4.20;99.90;;;;;;5054717;28;20017;-75
2022/04/09 08:34:33;;;;;;;1.88;1.77;;;3.90;99.90;;;;;;5072782;28;20090;-75
2022/04/09 08:36:59;;;;;;;2.28;1.85;;;3.70;99.90;;;;;;5072517;28;20051;-75
2022/04/09 08:39:25;;;;;;;0.40;0.40;;;3.70;99.90;;;;;;5072470;28;20069;-75
2022/04/09 08:41:53;;;;;;;0.30;0.30;;;3.70;99.90;;;;;;5072600;28;20473;-75
2022/04/09 08:44:19;;;;;;;0.73;0.55;;;4.00;99.90;;;;;;5037847;28;20029;-75
2022/04/09 08:46:47;;;;;;;0.20;0.20;;;4.20;99.90;;;;;;5047075;28;20404;-75
2022/04/09 08:49:13;;;;;;;2.70;1.50;;;4.20;99.90;;;;;;5040537;28;20104;-76
2022/04/09 08:51:40;;;;;;;2.95;2.83;;;4.20;99.90;;;;;;5034585;28;20033;-75
2022/04/09 08:54:08;;;;;;;2.58;1.95;;;4.40;99.90;;;;;;5052544;28;20087;-75
2022/04/09 08:56:35;;;;;;;3.17;2.35;;;4.30;99.90;;;;;;5034368;28;20070;-75
2022/04/09 08:59:02;;;;;;;2.85;2.35;;;4.10;99.90;;;;;;5034403;28;20032;-75
2022/04/09 09:01:29;;;;;;;0.65;0.65;;;3.90;99.90;;;;;;5052809;28;20025;-75
2022/04/09 09:03:56;;;;;;;0.30;0.30;;;3.90;99.90;;;;;;5018286;28;20051;-76
2022/04/09 09:06:35;;;;;;;0.82;0.82;;;4.10;99.90;;;;;;5052101;28;20028;-75
2022/04/09 09:09:04;;;;;;;0.90;0.73;;;4.10;99.90;;;;;;5017820;28;20073;-75
2022/04/09 09:11:44;;;;;;;0.47;0.47;;;4.00;99.90;;;;;;5033903;28;20021;-75
2022/04/09 09:14:10;;;;;;;1.95;1.65;;;4.30;99.90;;;;;;5052137;28;20468;-75
2022/04/09 09:16:36;;;;;;;1.27;0.95;;;4.70;99.90;;;;;;5034143;28;20464;-75
2022/04/09 09:19:04;;;;;;;0.40;0.40;;;5.20;99.90;;;;;;5033797;28;20063;-75
2022/04/09 09:21:30;;;;;;;0.20;0.20;;;5.40;99.90;;;;;;5052108;28;20013;-75
2022/04/09 09:24:14;;;;;;;3.92;2.85;;;6.10;99.90;;;;;;5034125;28;20025;-75
2022/04/09 09:26:40;;;;;;;1.17;1.17;;;6.30;99.90;;;;;;5034031;28;20028;-76
2022/04/09 09:29:08;;;;;;;1.30;1.23;;;6.10;99.90;;;;;;5051497;28;20039;-75
2022/04/09 09:31:46;;;;;;;0.82;0.82;;;6.20;99.90;;;;;;5051495;28;20041;-76
2022/04/09 09:34:13;;;;;;;0.20;0.20;;;6.70;99.90;;;;;;5051834;28;20100;-75
2022/04/09 09:36:43;;;;;;;2.25;2.05;;;6.40;99.90;;;;;;5051618;28;20473;-75
2022/04/09 09:41:57;;;;;;;0.93;0.93;;;7.20;99.90;;;;;;5082389;22;20045;-94
2022/04/09 09:44:48;;;;;;;2.03;1.73;;;7.20;99.90;;;;;;5019263;28;20119;-93
2022/04/09 09:47:17;;;;;;;0.95;0.95;;;7.60;99.90;;;;;;5019416;28;20021;-93
2022/04/09 09:49:59;;;;;;;0.20;0.20;;;8.10;99.90;;;;;;5019407;28;20029;-93
2022/04/09 09:52:36;;;;;;;1.13;1.02;;;8.10;99.90;;;;;;5019917;28;20032;-93
2022/04/09 09:55:13;;;;;;;4.13;2.17;;;8.00;99.90;;;;;;5020923;28;20032;-92
2022/04/09 09:57:52;;;;;;;0.55;0.55;;;7.60;99.90;;;;;;5005344;28;20036;-92
2022/04/09 10:00:18;;;;;;;0.88;0.88;;;8.00;99.90;;;;;;5020053;28;20084;-93
2022/04/09 10:02:50;;;;;;;1.55;1.33;;;8.10;99.90;;;;;;5032751;28;20082;-93
2022/04/09 10:05:16;;;;;;;;;;;8.20;99.90;;;;;;5020433;28;20031;-93
2022/04/09 10:07:42;;;;;;;1.15;1.10;;;8.00;99.90;;;;;;5022384;28;20305;-93
2022/04/09 10:10:08;;;;;;;0.40;0.40;;;8.10;99.90;;;;;;5021404;28;20112;-93
2022/04/09 10:12:41;;;;;;;3.45;1.95;;;8.90;99.90;;;;;;5033493;28;20040;-92
2022/04/09 10:15:08;;;;;;;1.20;1.10;;;9.00;99.90;;;;;;5041672;28;20085;-93
2022/04/09 10:17:41;;;;;;;0.52;0.52;;;9.00;99.90;;;;;;5021153;28;20025;-93
2022/04/09 10:20:56;;;;;;;8.80;2.38;;;9.30;99.90;;;;;;5022219;28;20383;-93
2022/04/09 10:23:24;;;;;;;1.33;0.85;;;9.80;98.70;;;;;;5021772;28;20112;-93
2022/04/09 10:25:51;;;;;;;3.20;2.38;;;9.00;95.90;;;;;;5019562;28;20082;-94
2022/04/09 10:28:38;;;;;;;1.98;1.17;;;9.10;99.80;;;;;;5021924;28;20115;-93
2022/04/09 10:31:43;;;;;;;5.03;2.95;;;9.20;97.60;;;;;;5020653;28;20033;-93
2022/04/09 10:34:15;;;;;;;0.55;0.55;;;8.40;95.40;;;;;;4971022;28;20073;-93
2022/04/09 10:36:41;;;;;;;0.98;0.57;;;7.80;97.50;;;;;;5020489;28;20025;-93
2022/04/09 10:39:29;;;;;;;6.18;2.35;;;8.30;98.80;;;;;;5020980;28;20044;-94
2022/04/09 10:41:56;;;;;;;2.22;1.80;;;9.10;95.60;;;;;;5024418;28;20040;-93
2022/04/09 10:44:45;;;;;;;5.28;1.17;;;8.80;93.90;;;;;;5023358;28;20092;-93
2022/04/09 10:47:15;;;;;;;2.05;1.33;;;8.50;96.80;;;;;;5023853;28;20025;-94
2022/04/09 10:50:05;;;;;;;0.93;0.88;;;9.10;94.20;;;;;;5025343;28;20029;-93
2022/04/09 10:52:34;;;;;;;0.82;0.82;;;9.80;93.50;;;;;;5028566;28;20021;-94
2022/04/09 10:55:12;;;;;;;0.60;0.60;;;10.80;86.90;;;;;;5029961;28;20470;-93
2022/04/09 10:57:45;;;;;;;7.95;2.53;;;11.30;82.00;;;;;;5026111;28;20088;-93
2022/04/09 11:00:22;;;;;;;0.40;0.40;;;9.80;77.00;;;;;;5025788;28;20025;-93
2022/04/09 11:03:03;;;;;;;2.60;1.52;;;10.70;80.40;;;;;;5026436;28;20036;-94
2022/04/09 11:05:29;;;;;;;0.22;0.22;;;9.80;76.50;;;;;;5030730;28;20759;-94
2022/04/09 11:08:14;;;;;;;0.30;0.30;;;9.70;78.80;;;;;;5030295;28;20071;-94
2022/04/09 11:10:48;;;;;;;1.02;0.75;;;9.20;77.70;;;;;;5023756;28;20470;-93
2022/04/09 11:13:27;;;;;;;0.25;0.25;;;9.10;81.00;;;;;;5024459;28;20628;-94
2022/04/09 11:16:00;;;;;;;0.40;0.40;;;8.80;85.60;;;;;;5009886;28;20025;-93
2022/04/09 11:18:34;;;;;;;0.70;0.70;;;8.80;91.10;;;;;;5026795;28;20021;-94
2022/04/09 11:21:12;;;;;;;1.65;1.52;;;8.50;91.50;;;;;;5024861;28;20021;-94
2022/04/09 11:23:57;;;;;;;0.70;0.70;;;8.30;94.50;;;;;;5024843;28;20025;-93
2022/04/09 11:26:40;;;;;;;1.85;1.75;;;8.60;94.90;;;;;;5030286;28;20025;-94
2022/04/09 11:29:56;;;;;;;;;;;;;;;;;;;;;
2022/04/09 11:32:29;;;;;;;3.30;1.00;;;10.70;90.30;;;;;;5042903;28;20033;-94
2022/04/09 11:35:11;;;;;;;0.22;0.22;;;11.00;81.10;;;;;;5030402;28;20101;-94
2022/04/09 11:38:16;;;;;;;0.68;0.68;;;11.60;79.20;;;;;;5051319;28;20529;-94
2022/04/09 11:41:00;;;;;;;3.40;0.95;;;11.00;75.20;;;;;;5028739;28;20056;-94
2022/04/09 11:43:55;;;;;;;1.13;0.60;;;10.50;76.10;;;;;;5026792;28;20033;-94
2022/04/09 11:46:21;;;;;;;2.17;0.90;;;10.50;76.80;;;;;;5042547;28;20047;-94
2022/04/09 11:49:07;;;;;;;0.65;0.63;;;11.00;78.90;;;;;;5028143;28;20033;-94
2022/04/09 11:52:26;;;;;;;0.32;0.32;;;10.80;79.30;;;;;;5025863;28;20024;-94
2022/04/09 11:55:09;;;;;;;0.47;0.47;;;10.70;79.40;;;;;;5024547;28;20040;-94
2022/04/09 12:00:54;;;;;;;4.85;1.17;;;8.50;94.90;;;;;;5043345;28;20029;-93
2022/04/09 12:03:36;;;;;;;1.63;0.90;;;8.20;97.50;;;;;;5021554;28;20029;-93
2022/04/09 12:06:27;;;;;;;0.25;0.25;;;7.80;98.00;;;;;;5026767;28;20013;-93
2022/04/09 12:09:24;;;;;;;0.20;0.20;;;7.40;99.90;;;;;;5047741;28;20079;-93
2022/04/09 12:12:00;;;;;;;0.20;0.20;;;7.30;99.90;;;;;;5023971;28;20029;-93
2022/04/09 12:14:32;;;;;;;0.20;0.20;;;6.90;99.90;;;;;;5025651;28;20031;-93
2022/04/09 12:17:15;;;;;;;0.15;0.15;;;6.90;99.90;;;;;;5060640;28;20035;-94
2022/04/09 12:19:44;;;;;;;0.82;0.82;;;7.60;99.90;;;;;;5038132;28;20072;-94
2022/04/09 12:22:21;;;;;;;0.80;0.70;;;8.00;99.90;;;;;;5026880;28;20021;-93
2022/04/09 12:24:53;;;;;;;0.20;0.20;;;8.20;99.90;;;;;;5025995;28;20154;-93
2022/04/09 12:27:21;;;;;;;0.25;0.25;;;8.30;99.90;;;;;;5024915;28;20052;-94
2022/04/09 12:29:55;;;;;;;0.28;0.28;;;8.30;99.90;;;;;;5025426;28;20025;-94
2022/04/09 12:32:25;;;;;;;2.05;1.08;;;8.80;99.90;;;;;;5025693;28;20398;-93
2022/04/09 12:34:57;;;;;;;0.28;0.28;;;8.60;99.90;;;;;;5023463;28;20021;-93
2022/04/09 12:37:23;;;;;;;1.58;1.48;;;8.80;99.90;;;;;;5021216;28;20112;-94
2022/04/09 12:39:50;;;;;;;0.65;0.65;;;8.80;99.90;;;;;;5022175;28;20037;-93
2022/04/09 12:42:16;;;;;;;1.13;0.73;;;8.60;99.90;;;;;;5021882;28;20025;-93
2022/04/09 12:44:44;;;;;;;1.33;1.23;;;8.30;99.90;;;;;;5023112;28;20021;-94
2022/04/09 12:47:10;;;;;;;3.30;1.38;;;8.10;99.90;;;;;;5021659;28;20023;-93
2022/04/09 12:49:46;;;;;;;0.55;0.55;;;7.80;98.90;;;;;;5020916;28;20061;-93
2022/04/09 12:52:15;;;;;;;1.25;0.82;;;7.40;99.90;;;;;;5022301;28;20037;-93
2022/04/09 12:54:41;;;;;;;1.05;0.93;;;7.00;99.90;;;;;;5023093;28;20033;-93
2022/04/09 12:57:09;;;;;;;2.00;0.95;;;6.90;99.90;;;;;;5020687;28;20031;-93
2022/04/09 12:59:37;;;;;;;0.75;0.73;;;6.70;99.90;;;;;;5022514;28;20029;-93
2022/04/09 13:02:40;;;;;;;0.75;0.75;;;6.70;98.30;;;;;;5023069;28;20092;-93
2022/04/09 13:09:24;;;;;;;2.72;1.45;;;6.80;99.00;;;;;;5058501;28;20055;-93
2022/04/09 13:11:53;;;;;;;1.25;0.55;;;7.50;97.40;;;;;;4997579;28;20040;-94
2022/04/09 13:14:19;;;;;;;0.45;0.45;;;8.10;93.60;;;;;;5024284;28;20017;-93
2022/04/09 13:16:45;;;;;;;0.60;0.60;;;8.50;91.10;;;;;;5021869;28;20029;-93
2022/04/09 13:19:11;;;;;;;0.30;0.30;;;8.80;87.30;;;;;;5022428;28;20017;-93